sensor_id;sensor_type;location;lat;lon;timestamp;pressure;altitude;pressure_sealevel;temperature;humidity
23363;BME280;11853;48.080;11.960;2022-09-09T00:00:24;94667.53;;;16.33;100.00
23363;BME280;11853;48.080;11.960;2022-09-09T00:03:17;94659.69;;;16.31;100.00
23363;BME280;11853;48.080;11.960;2022-09-09T00:06:42;94663.75;;;16.27;100.00
23363;BME280;11853;48.080;11.960;2022-09-09T00:11:40;94659.56;;;16.18;100.00
23363;BME280;11853;48.080;11.960;2022-09-09T00:14:19;94659.56;;;16.18;100.00
23363;BME280;11853;48.080;11.960;2022-09-09T00:16:56;94656.84;;;16.11;100.00
23363;BME280;11853;48.080;11.960;2022-09-09T00:19:49;94655.38;;;16.09;100.00
23363;BME280;11853;48.080;11.960;2022-09-09T00:22:25;94659.81;;;16.02;100.00
23363;BME280;11853;48.080;11.960;2022-09-09T00:24:54;94653.19;;;15.97;100.00
23363;BME280;11853;48.080;11.960;2022-09-09T00:27:50;94659.31;;;15.91;100.00
23363;BME280;11853;48.080;11.960;2022-09-09T00:30:22;94654.78;;;15.92;100.00
23363;BME280;11853;48.080;11.960;2022-09-09T00:32:59;94656.66;;;15.91;100.00
23363;BME280;11853;48.080;11.960;2022-09-09T00:35:41;94651.09;;;15.93;100.00
23363;BME280;11853;48.080;11.960;2022-09-09T00:38:19;94661.09;;;15.84;100.00
23363;BME280;11853;48.080;11.960;2022-09-09T00:43:32;94658.28;;;15.92;100.00
23363;BME280;11853;48.080;11.960;2022-09-09T00:46:14;94658.28;;;15.92;100.00
23363;BME280;11853;48.080;11.960;2022-09-09T00:51:17;94655.50;;;16.01;100.00
23363;BME280;11853;48.080;11.960;2022-09-09T00:54:15;94650.91;;;15.94;100.00
23363;BME280;11853;48.080;11.960;2022-09-09T01:01:53;94657.91;;;15.95;100.00
23363;BME280;11853;48.080;11.960;2022-09-09T01:05:10;94659.22;;;15.85;100.00
23363;BME280;11853;48.080;11.960;2022-09-09T01:07:19;94657.59;;;15.84;100.00
23363;BME280;11853;48.080;11.960;2022-09-09T01:10:13;94665.78;;;15.82;100.00
23363;BME280;11853;48.080;11.960;2022-09-09T01:12:46;94651.69;;;15.88;100.00
23363;BME280;11853;48.080;11.960;2022-09-09T01:15:18;94655.22;;;15.95;100.00
23363;BME280;11853;48.080;11.960;2022-09-09T01:20:24;94652.38;;;15.97;100.00
23363;BME280;11853;48.080;11.960;2022-09-09T01:28:16;94666.47;;;16.06;100.00
23363;BME280;11853;48.080;11.960;2022-09-09T01:30:44;94661.94;;;16.06;100.00
23363;BME280;11853;48.080;11.960;2022-09-09T01:33:15;94655.38;;;16.09;100.00
23363;BME280;11853;48.080;11.960;2022-09-09T01:36:02;94655.81;;;16.12;100.00
23363;BME280;11853;48.080;11.960;2022-09-09T01:38:31;94652.19;;;16.20;100.00
23363;BME280;11853;48.080;11.960;2022-09-09T01:40:58;94656.50;;;16.21;100.00
23363;BME280;11853;48.080;11.960;2022-09-09T01:43:25;94647.44;;;16.22;100.00
23363;BME280;11853;48.080;11.960;2022-09-09T01:45:53;94660.09;;;16.28;100.00
23363;BME280;11853;48.080;11.960;2022-09-09T01:48:21;94662.03;;;16.19;100.00
23363;BME280;11853;48.080;11.960;2022-09-09T01:50:48;94658.31;;;16.14;100.00
23363;BME280;11853;48.080;11.960;2022-09-09T01:53:15;94659.75;;;16.16;100.00
23363;BME280;11853;48.080;11.960;2022-09-09T01:55:46;94660.81;;;16.22;100.00
23363;BME280;11853;48.080;11.960;2022-09-09T01:58:21;94661.84;;;16.21;100.00
23363;BME280;11853;48.080;11.960;2022-09-09T02:01:07;94662.25;;;16.18;100.00
23363;BME280;11853;48.080;11.960;2022-09-09T02:03:36;94663.28;;;16.17;100.00
23363;BME280;11853;48.080;11.960;2022-09-09T02:08:56;94662.03;;;16.19;100.00
23363;BME280;11853;48.080;11.960;2022-09-09T02:11:24;94653.94;;;16.13;100.00
23363;BME280;11853;48.080;11.960;2022-09-09T02:14:02;94644.66;;;16.09;100.00
23363;BME280;11853;48.080;11.960;2022-09-09T02:19:47;94662.03;;;16.19;100.00
23363;BME280;11853;48.080;11.960;2022-09-09T02:22:17;94656.69;;;16.19;100.00
23363;BME280;11853;48.080;11.960;2022-09-09T02:24:44;94661.84;;;16.21;100.00
23363;BME280;11853;48.080;11.960;2022-09-09T02:27:12;94651.94;;;16.15;100.00
23363;BME280;11853;48.080;11.960;2022-09-09T02:29:41;94657.41;;;16.07;100.00
23363;BME280;11853;48.080;11.960;2022-09-09T02:32:17;94654.06;;;16.05;100.00
23363;BME280;11853;48.080;11.960;2022-09-09T02:34:58;94647.09;;;16.04;100.00
23363;BME280;11853;48.080;11.960;2022-09-09T02:37:29;94650.03;;;16.09;100.00
23363;BME280;11853;48.080;11.960;2022-09-09T02:39:57;94652.22;;;16.05;100.00
23363;BME280;11853;48.080;11.960;2022-09-09T02:42:22;94659.81;;;16.02;100.00
23363;BME280;11853;48.080;11.960;2022-09-09T02:44:49;94657.78;;;16.04;100.00
23363;BME280;11853;48.080;11.960;2022-09-09T02:47:35;94659.03;;;16.08;100.00
23363;BME280;11853;48.080;11.960;2022-09-09T02:50:22;94659.91;;;16.08;100.00
23363;BME280;11853;48.080;11.960;2022-09-09T02:55:52;94668.28;;;16.05;100.00
23363;BME280;11853;48.080;11.960;2022-09-09T02:58:21;94659.81;;;16.02;100.00
23363;BME280;11853;48.080;11.960;2022-09-09T03:00:49;94668.66;;;16.02;100.00
23363;BME280;11853;48.080;11.960;2022-09-09T03:03:16;94655.97;;;16.11;100.00
23363;BME280;11853;48.080;11.960;2022-09-09T03:05:43;94654.59;;;16.15;100.00
23363;BME280;11853;48.080;11.960;2022-09-09T03:08:10;94638.66;;;16.07;100.00
23363;BME280;11853;48.080;11.960;2022-09-09T03:10:36;94635.84;;;15.93;100.00
23363;BME280;11853;48.080;11.960;2022-09-09T03:13:02;94642.88;;;15.94;100.00
23363;BME280;11853;48.080;11.960;2022-09-09T03:15:35;94646.00;;;15.98;100.00
23363;BME280;11853;48.080;11.960;2022-09-09T03:18:01;94644.53;;;15.95;100.00
23363;BME280;11853;48.080;11.960;2022-09-09T03:20:28;94646.44;;;16.02;100.00
23363;BME280;11853;48.080;11.960;2022-09-09T03:22:55;94641.34;;;16.07;100.00
23363;BME280;11853;48.080;11.960;2022-09-09T03:25:21;94644.41;;;16.04;100.00
23363;BME280;11853;48.080;11.960;2022-09-09T03:27:51;94634.47;;;15.97;100.00
23363;BME280;11853;48.080;11.960;2022-09-09T03:30:21;94636.31;;;15.97;100.00
23363;BME280;11853;48.080;11.960;2022-09-09T03:32:46;94624.59;;;15.98;100.00
23363;BME280;11853;48.080;11.960;2022-09-09T03:35:13;94622.75;;;15.98;100.00
23363;BME280;11853;48.080;11.960;2022-09-09T03:37:39;94616.56;;;15.98;100.00
23363;BME280;11853;48.080;11.960;2022-09-09T03:40:05;94618.41;;;15.97;100.00
23363;BME280;11853;48.080;11.960;2022-09-09T03:42:31;94617.59;;;15.97;100.00
23363;BME280;11853;48.080;11.960;2022-09-09T03:44:57;94612.84;;;15.99;100.00
23363;BME280;11853;48.080;11.960;2022-09-09T03:47:23;94608.34;;;15.99;100.00
23363;BME280;11853;48.080;11.960;2022-09-09T03:49:48;94615.75;;;15.97;100.00
23363;BME280;11853;48.080;11.960;2022-09-09T03:52:15;94620.28;;;15.97;100.00
23363;BME280;11853;48.080;11.960;2022-09-09T03:54:41;94620.72;;;16.01;100.00
23363;BME280;11853;48.080;11.960;2022-09-09T03:57:08;94611.25;;;16.05;100.00
23363;BME280;11853;48.080;11.960;2022-09-09T03:59:34;94615.63;;;16.06;100.00
23363;BME280;11853;48.080;11.960;2022-09-09T04:02:00;94620.31;;;16.04;100.00
23363;BME280;11853;48.080;11.960;2022-09-09T04:04:26;94615.75;;;15.97;100.00
23363;BME280;11853;48.080;11.960;2022-09-09T04:06:53;94618.41;;;15.97;100.00
23363;BME280;11853;48.080;11.960;2022-09-09T04:09:19;94604.78;;;15.92;100.00
23363;BME280;11853;48.080;11.960;2022-09-09T04:11:45;94617.13;;;15.93;100.00
23363;BME280;11853;48.080;11.960;2022-09-09T04:14:12;94618.81;;;15.94;100.00
23363;BME280;11853;48.080;11.960;2022-09-09T04:16:38;94616.13;;;15.94;100.00
23363;BME280;11853;48.080;11.960;2022-09-09T04:19:04;94610.94;;;15.93;100.00
23363;BME280;11853;48.080;11.960;2022-09-09T04:21:32;94607.44;;;15.92;100.00
23363;BME280;11853;48.080;11.960;2022-09-09T04:23:58;94616.50;;;15.91;100.00
23363;BME280;11853;48.080;11.960;2022-09-09T04:26:24;94627.59;;;15.88;100.00
23363;BME280;11853;48.080;11.960;2022-09-09T04:28:50;94622.63;;;15.85;100.00
23363;BME280;11853;48.080;11.960;2022-09-09T04:31:18;94614.22;;;15.88;100.00
23363;BME280;11853;48.080;11.960;2022-09-09T04:33:46;94609.88;;;15.87;100.00
23363;BME280;11853;48.080;11.960;2022-09-09T04:36:12;94603.06;;;15.85;100.00
23363;BME280;11853;48.080;11.960;2022-09-09T04:38:38;94597.91;;;15.83;100.00
23363;BME280;11853;48.080;11.960;2022-09-09T04:41:05;94591.91;;;15.81;100.00
23363;BME280;11853;48.080;11.960;2022-09-09T04:43:31;94591.91;;;15.81;100.00
23363;BME280;11853;48.080;11.960;2022-09-09T04:45:57;94590.66;;;15.77;100.00
23363;BME280;11853;48.080;11.960;2022-09-09T04:48:24;94602.06;;;15.86;100.00
23363;BME280;11853;48.080;11.960;2022-09-09T04:51:01;94606.63;;;15.92;100.00
23363;BME280;11853;48.080;11.960;2022-09-09T04:53:27;94607.19;;;15.87;100.00
23363;BME280;11853;48.080;11.960;2022-09-09T04:56:06;94597.56;;;15.93;100.00
23363;BME280;11853;48.080;11.960;2022-09-09T04:58:32;94604.94;;;15.91;100.00
23363;BME280;11853;48.080;11.960;2022-09-09T05:01:16;94614.00;;;15.90;100.00
23363;BME280;11853;48.080;11.960;2022-09-09T05:03:45;94599.75;;;15.83;100.00
23363;BME280;11853;48.080;11.960;2022-09-09T05:06:13;94600.38;;;15.85;100.00
23363;BME280;11853;48.080;11.960;2022-09-09T05:08:40;94596.50;;;15.87;100.00
23363;BME280;11853;48.080;11.960;2022-09-09T05:11:24;94595.88;;;15.85;100.00
23363;BME280;11853;48.080;11.960;2022-09-09T05:13:51;94597.69;;;15.85;100.00
23363;BME280;11853;48.080;11.960;2022-09-09T05:16:18;94611.72;;;15.87;100.00
23363;BME280;11853;48.080;11.960;2022-09-09T05:18:44;94607.84;;;15.89;100.00
23363;BME280;11853;48.080;11.960;2022-09-09T05:21:13;94611.53;;;15.88;100.00
23363;BME280;11853;48.080;11.960;2022-09-09T05:23:39;94606.38;;;15.87;100.00
23363;BME280;11853;48.080;11.960;2022-09-09T05:26:05;94608.00;;;15.88;100.00
23363;BME280;11853;48.080;11.960;2022-09-09T05:28:34;94609.69;;;15.89;100.00
23363;BME280;11853;48.080;11.960;2022-09-09T05:31:05;94611.59;;;15.95;100.00
23363;BME280;11853;48.080;11.960;2022-09-09T05:33:35;94611.22;;;15.98;100.00
23363;BME280;11853;48.080;11.960;2022-09-09T05:36:06;94610.00;;;16.01;100.00
23363;BME280;11853;48.080;11.960;2022-09-09T05:38:34;94614.97;;;16.04;100.00
23363;BME280;11853;48.080;11.960;2022-09-09T05:41:03;94610.88;;;16.08;100.00
23363;BME280;11853;48.080;11.960;2022-09-09T05:43:29;94606.72;;;16.05;100.00
23363;BME280;11853;48.080;11.960;2022-09-09T05:46:12;94613.16;;;16.11;100.00
23363;BME280;11853;48.080;11.960;2022-09-09T05:48:43;94618.16;;;16.14;100.00
23363;BME280;11853;48.080;11.960;2022-09-09T05:51:14;94619.22;;;16.19;100.00
23363;BME280;11853;48.080;11.960;2022-09-09T05:53:43;94618.00;;;16.22;100.00
23363;BME280;11853;48.080;11.960;2022-09-09T05:58:43;94617.25;;;16.28;100.00
23363;BME280;11853;48.080;11.960;2022-09-09T06:01:11;94622.59;;;16.28;100.00
23363;BME280;11853;48.080;11.960;2022-09-09T06:03:40;94626.94;;;16.29;100.00
23363;BME280;11853;48.080;11.960;2022-09-09T06:06:09;94637.00;;;16.27;100.00
23363;BME280;11853;48.080;11.960;2022-09-09T06:08:37;94634.97;;;16.29;100.00
23363;BME280;11853;48.080;11.960;2022-09-09T06:11:14;94632.53;;;16.34;100.00
23363;BME280;11853;48.080;11.960;2022-09-09T06:13:41;94633.66;;;16.25;100.00
23363;BME280;11853;48.080;11.960;2022-09-09T06:16:14;94628.09;;;16.20;100.00
23363;BME280;11853;48.080;11.960;2022-09-09T06:18:41;94629.59;;;16.08;100.00
23363;BME280;11853;48.080;11.960;2022-09-09T06:21:11;94618.28;;;16.06;100.00
23363;BME280;11853;48.080;11.960;2022-09-09T06:23:40;94629.03;;;16.12;100.00
23363;BME280;11853;48.080;11.960;2022-09-09T06:28:34;94621.84;;;16.13;100.00
23363;BME280;11853;48.080;11.960;2022-09-09T06:31:01;94620.06;;;16.20;100.00
23363;BME280;11853;48.080;11.960;2022-09-09T06:33:31;94627.97;;;16.07;100.00
23363;BME280;11853;48.080;11.960;2022-09-09T06:35:57;94628.34;;;16.04;100.00
23363;BME280;11853;48.080;11.960;2022-09-09T06:38:23;94626.06;;;16.01;100.00
23363;BME280;11853;48.080;11.960;2022-09-09T06:40:57;94627.31;;;16.05;100.00
23363;BME280;11853;48.080;11.960;2022-09-09T06:43:24;94636.38;;;16.04;100.00
23363;BME280;11853;48.080;11.960;2022-09-09T06:46:03;94640.56;;;16.13;100.00
23363;BME280;11853;48.080;11.960;2022-09-09T06:48:29;94637.50;;;16.16;100.00
23363;BME280;11853;48.080;11.960;2022-09-09T06:51:05;94636.31;;;15.97;100.00
23363;BME280;11853;48.080;11.960;2022-09-09T06:53:33;94646.44;;;16.02;100.00
23363;BME280;11853;48.080;11.960;2022-09-09T06:56:01;94647.53;;;16.07;100.00
23363;BME280;11853;48.080;11.960;2022-09-09T06:58:28;94653.69;;;16.08;100.00
23363;BME280;11853;48.080;11.960;2022-09-09T07:01:04;94646.75;;;15.92;100.00
23363;BME280;11853;48.080;11.960;2022-09-09T07:03:31;94648.34;;;15.86;100.00
23363;BME280;11853;48.080;11.960;2022-09-09T07:05:57;94642.13;;;16.01;100.00
23363;BME280;11853;48.080;11.960;2022-09-09T07:08:23;94645.28;;;16.11;100.00
23363;BME280;11853;48.080;11.960;2022-09-09T07:10:51;94648.56;;;16.06;100.00
23363;BME280;11853;48.080;11.960;2022-09-09T07:13:24;94639.28;;;15.87;100.00
23363;BME280;11853;48.080;11.960;2022-09-09T07:15:53;94642.34;;;15.84;100.00
23363;BME280;11853;48.080;11.960;2022-09-09T07:18:19;94630.66;;;15.85;100.00
23363;BME280;11853;48.080;11.960;2022-09-09T07:20:55;94621.22;;;15.89;100.00
23363;BME280;11853;48.080;11.960;2022-09-09T07:23:24;94628.84;;;15.92;100.00
23363;BME280;11853;48.080;11.960;2022-09-09T07:25:50;94632.19;;;15.94;100.00
23363;BME280;11853;48.080;11.960;2022-09-09T07:28:19;94634.59;;;15.89;100.00
23363;BME280;11853;48.080;11.960;2022-09-09T07:30:56;94636.63;;;15.87;100.00
23363;BME280;11853;48.080;11.960;2022-09-09T07:33:22;94637.72;;;15.93;100.00
23363;BME280;11853;48.080;11.960;2022-09-09T07:35:49;94643.31;;;15.98;100.00
23363;BME280;11853;48.080;11.960;2022-09-09T07:38:25;94636.75;;;16.01;100.00
23363;BME280;11853;48.080;11.960;2022-09-09T07:40:51;94643.38;;;16.05;100.00
23363;BME280;11853;48.080;11.960;2022-09-09T07:43:16;94638.09;;;16.11;100.00
23363;BME280;11853;48.080;11.960;2022-09-09T07:45:44;94640.00;;;16.17;100.00
23363;BME280;11853;48.080;11.960;2022-09-09T07:48:18;94656.25;;;16.16;100.00
23363;BME280;11853;48.080;11.960;2022-09-09T07:50:44;94657.28;;;16.15;100.00
23363;BME280;11853;48.080;11.960;2022-09-09T07:53:09;94655.03;;;16.18;100.00
23363;BME280;11853;48.080;11.960;2022-09-09T07:55:35;94658.75;;;16.17;100.00
23363;BME280;11853;48.080;11.960;2022-09-09T07:58:01;94664.91;;;16.18;100.00
23363;BME280;11853;48.080;11.960;2022-09-09T08:00:27;94667.03;;;16.23;100.00
23363;BME280;11853;48.080;11.960;2022-09-09T08:02:56;94670.91;;;16.20;100.00
23363;BME280;11853;48.080;11.960;2022-09-09T08:05:21;94683.53;;;16.26;100.00
23363;BME280;11853;48.080;11.960;2022-09-09T08:07:48;94708.63;;;16.25;100.00
23363;BME280;11853;48.080;11.960;2022-09-09T08:10:14;94735.88;;;16.29;100.00
23363;BME280;11853;48.080;11.960;2022-09-09T08:12:41;94742.31;;;16.34;100.00
23363;BME280;11853;48.080;11.960;2022-09-09T08:15:07;94731.41;;;16.36;100.00
23363;BME280;11853;48.080;11.960;2022-09-09T08:17:33;94737.19;;;16.39;100.00
23363;BME280;11853;48.080;11.960;2022-09-09T08:19:58;94740.47;;;16.35;100.00
23363;BME280;11853;48.080;11.960;2022-09-09T08:22:28;94740.84;;;16.32;100.00
23363;BME280;11853;48.080;11.960;2022-09-09T08:24:54;94749.06;;;16.30;100.00
23363;BME280;11853;48.080;11.960;2022-09-09T08:27:20;94742.88;;;16.30;100.00
23363;BME280;11853;48.080;11.960;2022-09-09T08:29:45;94747.03;;;16.32;100.00
23363;BME280;11853;48.080;11.960;2022-09-09T08:32:12;94739.63;;;16.34;100.00
23363;BME280;11853;48.080;11.960;2022-09-09T08:34:38;94736.31;;;16.32;100.00
23363;BME280;11853;48.080;11.960;2022-09-09T08:37:04;94743.69;;;16.30;100.00
23363;BME280;11853;48.080;11.960;2022-09-09T08:39:29;94750.72;;;16.31;100.00
23363;BME280;11853;48.080;11.960;2022-09-09T08:52:38;94730.56;;;16.35;100.00
23363;BME280;11853;48.080;11.960;2022-09-09T08:56:08;94738.22;;;16.38;100.00
23363;BME280;11853;48.080;11.960;2022-09-09T08:58:19;94741.72;;;16.39;100.00
23363;BME280;11853;48.080;11.960;2022-09-09T09:11:38;94751.22;;;16.20;100.00
23363;BME280;11853;48.080;11.960;2022-09-09T09:14:11;94759.31;;;16.27;100.00
23363;BME280;11853;48.080;11.960;2022-09-09T09:16:51;94760.53;;;16.24;100.00
23363;BME280;11853;48.080;11.960;2022-09-09T09:19:18;94751.47;;;16.25;100.00
23363;BME280;11853;48.080;11.960;2022-09-09T09:24:53;94748.59;;;16.27;100.00
23363;BME280;11853;48.080;11.960;2022-09-09T09:27:18;94746.09;;;16.25;100.00
23363;BME280;11853;48.080;11.960;2022-09-09T09:29:48;94748.22;;;16.30;100.00
23363;BME280;11853;48.080;11.960;2022-09-09T09:32:18;94746.75;;;16.27;100.00
23363;BME280;11853;48.080;11.960;2022-09-09T09:34:53;94750.34;;;16.34;100.00
23363;BME280;11853;48.080;11.960;2022-09-09T09:37:30;94752.25;;;16.40;100.00
23363;BME280;11853;48.080;11.960;2022-09-09T09:40:08;94747.91;;;16.39;100.00
23363;BME280;11853;48.080;11.960;2022-09-09T09:42:35;94755.69;;;16.34;100.00
23363;BME280;11853;48.080;11.960;2022-09-09T09:45:35;94764.72;;;16.33;100.00
23363;BME280;11853;48.080;11.960;2022-09-09T09:48:10;94765.13;;;16.30;100.00
23363;BME280;11853;48.080;11.960;2022-09-09T09:50:50;94759.50;;;16.25;100.00
23363;BME280;11853;48.080;11.960;2022-09-09T09:53:21;94765.13;;;16.30;100.00
23363;BME280;11853;48.080;11.960;2022-09-09T09:56:04;94762.56;;;16.22;100.00
23363;BME280;11853;48.080;11.960;2022-09-09T10:01:24;94765.88;;;16.24;100.00
23363;BME280;11853;48.080;11.960;2022-09-09T10:04:03;94762.16;;;16.25;100.00
23363;BME280;11853;48.080;11.960;2022-09-09T10:06:38;94764.63;;;16.20;100.00
23363;BME280;11853;48.080;11.960;2022-09-09T10:09:27;94768.50;;;16.17;100.00
23363;BME280;11853;48.080;11.960;2022-09-09T10:19:45;94753.38;;;16.10;100.00
23363;BME280;11853;48.080;11.960;2022-09-09T10:32:57;94765.38;;;16.14;100.00
23363;BME280;11853;48.080;11.960;2022-09-09T10:41:52;94755.94;;;16.39;100.00
23363;BME280;11853;48.080;11.960;2022-09-09T10:47:13;94750.34;;;16.34;100.00
23363;BME280;11853;48.080;11.960;2022-09-09T10:52:37;94759.41;;;16.55;100.00
23363;BME280;11853;48.080;11.960;2022-09-09T10:55:10;94759.91;;;16.43;100.00
23363;BME280;11853;48.080;11.960;2022-09-09T11:00:06;94766.25;;;16.21;100.00
23363;BME280;11853;48.080;11.960;2022-09-09T11:02:41;94772.25;;;16.23;100.00
23363;BME280;11853;48.080;11.960;2022-09-09T11:05:20;94766.91;;;16.44;100.00
23363;BME280;11853;48.080;11.960;2022-09-09T11:07:57;94770.09;;;16.33;100.00
23363;BME280;11853;48.080;11.960;2022-09-09T11:15:49;94757.72;;;16.32;100.00
23363;BME280;11853;48.080;11.960;2022-09-09T11:18:23;94756.00;;;16.25;100.00
23363;BME280;11853;48.080;11.960;2022-09-09T11:20:55;94753.84;;;15.98;100.00
23363;BME280;11853;48.080;11.960;2022-09-09T11:24:00;94750.28;;;15.91;100.00
23363;BME280;11853;48.080;11.960;2022-09-09T11:26:36;94751.84;;;16.01;100.00
23363;BME280;11853;48.080;11.960;2022-09-09T11:34:36;94751.34;;;16.12;100.00
23363;BME280;11853;48.080;11.960;2022-09-09T11:40:23;94757.19;;;16.22;100.00
23363;BME280;11853;48.080;11.960;2022-09-09T11:42:49;94760.53;;;16.24;100.00
23363;BME280;11853;48.080;11.960;2022-09-09T11:45:28;94762.50;;;16.15;100.00
23363;BME280;11853;48.080;11.960;2022-09-09T11:47:56;94761.28;;;16.18;100.00
23363;BME280;11853;48.080;11.960;2022-09-09T11:52:48;94756.97;;;16.02;100.00
23363;BME280;11853;48.080;11.960;2022-09-09T11:55:33;94759.38;;;16.12;100.00
23363;BME280;11853;48.080;11.960;2022-09-09T12:00:46;94758.56;;;16.11;100.00
23363;BME280;11853;48.080;11.960;2022-09-09T12:05:57;94761.81;;;16.28;100.00
23363;BME280;11853;48.080;11.960;2022-09-09T12:08:28;94750.72;;;16.31;100.00
23363;BME280;11853;48.080;11.960;2022-09-09T12:10:58;94757.53;;;16.34;100.00
23363;BME280;11853;48.080;11.960;2022-09-09T12:13:28;94760.03;;;16.35;100.00
23363;BME280;11853;48.080;11.960;2022-09-09T12:15:58;94756.13;;;16.38;100.00
23363;BME280;11853;48.080;11.960;2022-09-09T12:18:38;94750.28;;;16.49;100.00
23363;BME280;11853;48.080;11.960;2022-09-09T12:21:19;94755.19;;;16.67;100.00
23363;BME280;11853;48.080;11.960;2022-09-09T12:23:52;94762.81;;;16.70;100.00
23363;BME280;11853;48.080;11.960;2022-09-09T12:29:09;94741.13;;;16.65;100.00
23363;BME280;11853;48.080;11.960;2022-09-09T12:32:04;94746.97;;;16.69;100.00
23363;BME280;11853;48.080;11.960;2022-09-09T12:34:41;94750.63;;;16.67;100.00
23363;BME280;11853;48.080;11.960;2022-09-09T12:39:57;94752.13;;;16.92;100.00
23363;BME280;11853;48.080;11.960;2022-09-09T12:42:24;94746.31;;;16.88;100.00
23363;BME280;11853;48.080;11.960;2022-09-09T12:45:01;94748.41;;;16.93;100.00
23363;BME280;11853;48.080;11.960;2022-09-09T12:47:59;94745.88;;;16.84;100.00
23363;BME280;11853;48.080;11.960;2022-09-09T12:50:35;94744.69;;;16.94;100.00
23363;BME280;11853;48.080;11.960;2022-09-09T12:53:08;94737.66;;;16.86;100.00
23363;BME280;11853;48.080;11.960;2022-09-09T12:55:37;94733.97;;;16.94;100.00
23363;BME280;11853;48.080;11.960;2022-09-09T12:58:05;94733.91;;;16.80;100.00
23363;BME280;11853;48.080;11.960;2022-09-09T13:00:33;94734.38;;;16.91;100.00
23363;BME280;11853;48.080;11.960;2022-09-09T13:03:02;94734.75;;;16.87;100.00
23363;BME280;11853;48.080;11.960;2022-09-09T13:05:35;94728.16;;;16.83;100.00
23363;BME280;11853;48.080;11.960;2022-09-09T13:08:02;94724.03;;;16.87;100.00
23363;BME280;11853;48.080;11.960;2022-09-09T13:10:33;94721.09;;;16.82;100.00
23363;BME280;11853;48.080;11.960;2022-09-09T13:12:59;94722.66;;;16.92;100.00
23363;BME280;11853;48.080;11.960;2022-09-09T13:15:28;94718.06;;;16.85;100.00
23363;BME280;11853;48.080;11.960;2022-09-09T13:18:01;94719.44;;;17.03;100.00
23363;BME280;11853;48.080;11.960;2022-09-09T13:20:29;94717.50;;;16.97;100.00
23363;BME280;11853;48.080;11.960;2022-09-09T13:22:56;94720.19;;;16.97;100.00
23363;BME280;11853;48.080;11.960;2022-09-09T13:25:29;94715.91;;;17.02;100.00
23363;BME280;11853;48.080;11.960;2022-09-09T13:28:02;94714.91;;;17.03;100.00
23363;BME280;11853;48.080;11.960;2022-09-09T13:30:31;94711.38;;;17.03;100.00
23363;BME280;11853;48.080;11.960;2022-09-09T13:36:00;94702.31;;;17.04;100.00
23363;BME280;11853;48.080;11.960;2022-09-09T13:38:30;94697.19;;;17.09;100.00
23363;BME280;11853;48.080;11.960;2022-09-09T13:41:00;94704.84;;;17.12;100.00
23363;BME280;11853;48.080;11.960;2022-09-09T13:43:43;94703.16;;;17.11;100.00
23363;BME280;11853;48.080;11.960;2022-09-09T13:46:26;94696.97;;;17.10;100.00
23363;BME280;11853;48.080;11.960;2022-09-09T13:48:55;94700.22;;;16.99;100.00
23363;BME280;11853;48.080;11.960;2022-09-09T13:51:32;94693.22;;;17.05;100.00
23363;BME280;11853;48.080;11.960;2022-09-09T13:53:59;94700.81;;;16.95;100.00
23363;BME280;11853;48.080;11.960;2022-09-09T13:56:26;94692.97;;;16.93;100.00
23363;BME280;11853;48.080;11.960;2022-09-09T13:58:51;94695.69;;;17.00;100.00
23363;BME280;11853;48.080;11.960;2022-09-09T14:01:17;94688.50;;;17.07;100.00
23363;BME280;11853;48.080;11.960;2022-09-09T14:03:43;94678.97;;;16.98;100.00
23363;BME280;11853;48.080;11.960;2022-09-09T14:06:10;94676.69;;;16.95;100.00
23363;BME280;11853;48.080;11.960;2022-09-09T14:08:36;94676.06;;;16.93;100.00
23363;BME280;11853;48.080;11.960;2022-09-09T14:11:03;94673.22;;;17.01;100.00
23363;BME280;11853;48.080;11.960;2022-09-09T14:13:29;94681.66;;;16.98;100.00
23363;BME280;11853;48.080;11.960;2022-09-09T14:15:55;94674.69;;;17.03;100.00
23363;BME280;11853;48.080;11.960;2022-09-09T14:18:21;94683.84;;;17.22;100.00
23363;BME280;11853;48.080;11.960;2022-09-09T14:20:49;94682.22;;;17.21;100.00
23363;BME280;11853;48.080;11.960;2022-09-09T14:23:16;94682.19;;;17.15;100.00
23363;BME280;11853;48.080;11.960;2022-09-09T14:25:42;94673.69;;;17.11;100.00
23363;BME280;11853;48.080;11.960;2022-09-09T14:28:10;94672.41;;;17.00;100.00
23363;BME280;11853;48.080;11.960;2022-09-09T14:30:41;94669.91;;;16.99;100.00
23363;BME280;11853;48.080;11.960;2022-09-09T14:33:08;94675.25;;;16.99;100.00
23363;BME280;11853;48.080;11.960;2022-09-09T14:35:35;94675.91;;;17.01;100.00
23363;BME280;11853;48.080;11.960;2022-09-09T14:38:02;94670.44;;;16.87;100.00
23363;BME280;11853;48.080;11.960;2022-09-09T14:40:28;94675.22;;;16.92;100.00
23363;BME280;11853;48.080;11.960;2022-09-09T14:42:54;94667.72;;;17.09;100.00
23363;BME280;11853;48.080;11.960;2022-09-09T14:45:22;94662.25;;;16.96;100.00
23363;BME280;11853;48.080;11.960;2022-09-09T14:47:50;94674.56;;;16.83;100.00
23363;BME280;11853;48.080;11.960;2022-09-09T14:50:17;94665.31;;;16.86;100.00
23363;BME280;11853;48.080;11.960;2022-09-09T14:52:43;94668.41;;;16.89;100.00
23363;BME280;11853;48.080;11.960;2022-09-09T14:55:09;94668.59;;;16.88;100.00
23363;BME280;11853;48.080;11.960;2022-09-09T14:57:35;94674.56;;;16.83;100.00
23363;BME280;11853;48.080;11.960;2022-09-09T15:00:03;94678.03;;;16.77;100.00
23363;BME280;11853;48.080;11.960;2022-09-09T15:02:32;94673.28;;;16.79;100.00
23363;BME280;11853;48.080;11.960;2022-09-09T15:04:58;94669.31;;;16.75;100.00